Time;durP1;ratioP1;P1;durP2;ratioP2;P2;SDS_P1;SDS_P2;PMS_P1;PMS_P2;Temp;Humidity;BMP_temperature;BMP_pressure;BME280_temperature;BME280_humidity;BME280_pressure;Samples;Min_cycle;Max_cycle;Signal;HPM_P1;HPM_P2
2022/08/24 00:01:36;;;;;;;1.13;0.68;;;9.20;99.90;;;;;;5033583;28;20041;-77
2022/08/24 00:04:04;;;;;;;0.77;0.70;;;9.30;99.90;;;;;;5033635;28;20530;-78
2022/08/24 00:06:32;;;;;;;2.72;0.98;;;9.30;99.90;;;;;;5016225;28;20101;-77
2022/08/24 00:09:01;;;;;;;2.40;0.73;;;9.40;99.90;;;;;;5033554;28;20018;-77
2022/08/24 00:11:28;;;;;;;3.40;0.93;;;9.50;99.90;;;;;;5031384;28;20021;-77
2022/08/24 00:13:56;;;;;;;1.15;0.50;;;9.50;99.90;;;;;;5033406;28;20386;-76
2022/08/24 00:16:24;;;;;;;2.83;0.70;;;9.60;99.90;;;;;;5033339;28;20048;-77
2022/08/24 00:18:54;;;;;;;1.98;0.73;;;9.70;99.90;;;;;;5033247;28;20029;-77
2022/08/24 00:21:22;;;;;;;1.00;0.60;;;9.80;99.90;;;;;;5033219;28;20405;-76
2022/08/24 00:23:50;;;;;;;4.80;1.15;;;9.80;99.90;;;;;;5032214;28;20049;-76
2022/08/24 00:26:18;;;;;;;1.60;0.60;;;9.90;99.90;;;;;;5016130;28;20521;-78
2022/08/24 00:28:46;;;;;;;5.72;1.05;;;10.00;99.90;;;;;;5033790;28;20132;-76
2022/08/24 00:31:14;;;;;;;1.17;0.45;;;10.10;99.90;;;;;;5033753;28;20025;-77
2022/08/24 00:33:42;;;;;;;3.15;0.80;;;10.20;99.90;;;;;;5032453;28;20041;-77
2022/08/24 00:36:10;;;;;;;2.70;1.20;;;10.30;99.90;;;;;;5031385;28;20068;-78
2022/08/24 00:38:38;;;;;;;1.50;0.68;;;10.20;99.90;;;;;;5031503;28;20026;-76
2022/08/24 00:41:06;;;;;;;7.63;1.23;;;10.20;99.90;;;;;;5031402;28;20075;-77
2022/08/24 00:43:34;;;;;;;4.13;0.77;;;10.20;99.90;;;;;;5031424;28;20104;-77
2022/08/24 00:46:25;;;;;;;2.20;0.70;;;10.20;99.90;;;;;;5031363;28;20022;-76
2022/08/24 00:49:15;;;;;;;4.00;0.82;;;10.30;99.90;;;;;;5032174;28;20040;-77
2022/08/24 00:52:03;;;;;;;1.35;0.60;;;10.30;99.90;;;;;;5033728;28;20415;-78
2022/08/24 00:54:39;;;;;;;1.42;0.75;;;10.40;99.90;;;;;;5023295;28;20398;-78
2022/08/24 00:57:09;;;;;;;;;;;10.50;99.90;;;;;;5034473;28;20489;-78
2022/08/24 00:59:49;;;;;;;2.42;0.63;;;10.50;99.90;;;;;;5033327;28;20419;-77
2022/08/24 01:02:24;;;;;;;1.52;0.50;;;10.60;99.90;;;;;;5033048;28;20103;-76
2022/08/24 01:05:01;;;;;;;5.17;0.80;;;10.70;99.90;;;;;;5033684;28;20474;-77
2022/08/24 01:07:31;;;;;;;2.13;0.90;;;10.70;99.90;;;;;;5033563;28;20363;-77
2022/08/24 01:10:20;;;;;;;4.25;0.55;;;10.70;99.90;;;;;;5033360;28;20024;-77
2022/08/24 01:12:50;;;;;;;2.38;1.02;;;10.70;99.90;;;;;;5015025;28;20060;-78
2022/08/24 01:15:19;;;;;;;2.58;0.73;;;10.80;99.90;;;;;;5033352;28;20018;-78
2022/08/24 01:20:32;;;;;;;2.08;1.17;;;10.90;99.90;;;;;;5033704;28;20072;-77
2022/08/24 01:23:00;;;;;;;4.47;0.75;;;11.00;99.90;;;;;;5033318;28;20107;-77
2022/08/24 01:25:30;;;;;;;1.73;0.80;;;11.10;99.90;;;;;;5033201;28;20064;-78
2022/08/24 01:28:00;;;;;;;1.83;0.52;;;11.10;99.90;;;;;;5033313;28;20159;-77
2022/08/24 01:30:29;;;;;;;2.65;1.55;;;11.20;99.90;;;;;;5033065;28;20486;-76
2022/08/24 01:33:00;;;;;;;2.42;0.57;;;11.20;99.90;;;;;;5032860;28;20036;-77
2022/08/24 01:35:30;;;;;;;2.60;0.50;;;11.30;99.90;;;;;;5033243;28;20053;-77
2022/08/24 01:38:01;;;;;;;3.25;0.80;;;11.30;99.90;;;;;;5033176;28;20092;-77
2022/08/24 01:40:46;;;;;;;3.33;1.05;;;11.30;99.90;;;;;;5033004;28;20030;-77
2022/08/24 01:43:14;;;;;;;1.90;0.80;;;11.40;99.90;;;;;;5033083;28;20044;-76
2022/08/24 01:45:42;;;;;;;2.13;0.50;;;11.50;99.90;;;;;;5033033;28;20112;-78
2022/08/24 01:48:12;;;;;;;3.20;0.82;;;11.50;99.90;;;;;;5033065;28;20049;-76
2022/08/24 01:50:40;;;;;;;1.17;0.75;;;11.50;99.90;;;;;;5032833;28;20075;-78
2022/08/24 01:53:08;;;;;;;2.08;0.80;;;11.50;99.90;;;;;;5032828;28;20039;-77
2022/08/24 01:55:40;;;;;;;1.70;0.60;;;11.50;99.90;;;;;;5032844;28;20510;-76
2022/08/24 01:58:08;;;;;;;1.85;0.60;;;11.50;99.90;;;;;;5033041;28;20030;-77
2022/08/24 02:00:36;;;;;;;4.55;0.70;;;11.60;99.90;;;;;;5032772;28;20048;-78
2022/08/24 02:03:05;;;;;;;1.40;0.95;;;11.80;99.90;;;;;;5032611;28;20124;-77
2022/08/24 02:05:33;;;;;;;1.67;0.60;;;11.80;99.90;;;;;;5032918;28;20523;-78
2022/08/24 02:08:01;;;;;;;1.08;0.70;;;11.80;99.90;;;;;;5032720;28;20033;-77
2022/08/24 02:10:29;;;;;;;1.73;0.80;;;11.90;99.90;;;;;;5032664;28;20061;-77
2022/08/24 02:12:58;;;;;;;4.50;1.00;;;11.90;99.90;;;;;;5034204;28;20040;-77
2022/08/24 02:15:32;;;;;;;2.65;0.80;;;11.90;99.90;;;;;;5036336;28;20075;-77
2022/08/24 02:18:00;;;;;;;2.25;0.80;;;11.90;99.90;;;;;;5036436;28;20433;-77
2022/08/24 02:20:29;;;;;;;2.28;0.70;;;12.00;99.90;;;;;;5036322;28;20021;-78
2022/08/24 02:23:00;;;;;;;1.83;0.55;;;12.10;99.90;;;;;;5036158;28;20022;-77
2022/08/24 02:25:30;;;;;;;2.42;0.80;;;12.10;99.90;;;;;;5035312;28;20036;-75
2022/08/24 02:28:00;;;;;;;2.30;0.55;;;12.10;99.90;;;;;;5033609;28;20528;-77
2022/08/24 02:30:29;;;;;;;1.75;1.02;;;12.20;99.90;;;;;;5035582;28;20049;-77
2022/08/24 02:32:58;;;;;;;2.92;1.05;;;12.30;99.90;;;;;;5032845;28;20076;-78
2022/08/24 02:35:28;;;;;;;2.30;0.90;;;12.30;99.90;;;;;;5035706;28;20029;-76
2022/08/24 02:38:00;;;;;;;1.20;0.55;;;12.30;99.90;;;;;;5035157;28;20501;-77
2022/08/24 02:40:28;;;;;;;1.88;0.70;;;12.40;99.90;;;;;;5035355;28;20020;-77
2022/08/24 02:42:56;;;;;;;0.65;0.55;;;12.50;99.90;;;;;;5035069;28;20356;-76
2022/08/24 02:45:26;;;;;;;1.52;0.70;;;12.40;99.90;;;;;;5035244;28;20022;-77
2022/08/24 02:47:54;;;;;;;1.88;0.60;;;12.50;99.90;;;;;;5035050;28;20021;-78
2022/08/24 02:50:22;;;;;;;3.67;0.80;;;12.50;99.90;;;;;;5034988;28;20033;-78
2022/08/24 02:52:50;;;;;;;1.13;0.77;;;12.60;99.90;;;;;;5017103;28;20025;-77
2022/08/24 02:55:19;;;;;;;1.45;0.50;;;12.60;99.90;;;;;;5032454;28;20021;-78
2022/08/24 02:57:47;;;;;;;5.97;1.25;;;12.70;99.90;;;;;;5035106;28;20029;-78
2022/08/24 03:00:17;;;;;;;3.00;0.70;;;12.70;99.90;;;;;;5035439;28;20051;-78
2022/08/24 03:02:45;;;;;;;1.83;0.90;;;12.70;99.90;;;;;;5034680;28;20425;-78
2022/08/24 03:05:16;;;;;;;1.55;0.63;;;12.70;99.90;;;;;;5035427;28;20418;-77
2022/08/24 03:07:44;;;;;;;3.33;0.93;;;12.70;99.90;;;;;;5035370;28;20359;-78
2022/08/24 03:10:13;;;;;;;1.00;0.63;;;12.70;99.90;;;;;;5035061;28;20429;-77
2022/08/24 03:12:41;;;;;;;3.33;0.90;;;12.70;99.90;;;;;;5035139;28;20017;-76
2022/08/24 03:15:10;;;;;;;2.45;1.08;;;12.70;99.90;;;;;;5035138;28;20033;-79
2022/08/24 03:17:39;;;;;;;3.28;1.05;;;12.80;99.90;;;;;;5035277;28;20024;-78
2022/08/24 03:20:11;;;;;;;1.50;0.63;;;12.80;99.90;;;;;;5035074;28;20063;-78
2022/08/24 03:22:39;;;;;;;3.08;1.00;;;12.80;99.90;;;;;;5035159;28;20018;-78
2022/08/24 03:25:07;;;;;;;3.30;0.60;;;12.80;99.90;;;;;;5034873;28;20025;-79
2022/08/24 03:27:35;;;;;;;3.65;0.80;;;12.90;99.90;;;;;;5034901;28;20108;-79
2022/08/24 03:30:05;;;;;;;2.30;0.70;;;13.00;99.90;;;;;;5034908;28;20025;-77
2022/08/24 03:32:33;;;;;;;2.22;1.02;;;13.10;99.90;;;;;;5035081;28;20034;-80
2022/08/24 03:35:03;;;;;;;0.70;0.57;;;13.20;99.90;;;;;;5035095;28;20022;-79
2022/08/24 03:37:31;;;;;;;4.38;1.20;;;13.20;99.90;;;;;;5033685;28;20029;-74
2022/08/24 03:39:59;;;;;;;2.35;0.50;;;13.20;99.90;;;;;;5034194;28;20529;-78
2022/08/24 03:42:27;;;;;;;3.05;0.77;;;13.20;99.90;;;;;;5033980;28;20488;-79
2022/08/24 03:44:55;;;;;;;3.15;0.75;;;13.30;99.90;;;;;;5033457;28;20390;-79
2022/08/24 03:47:22;;;;;;;2.50;0.90;;;13.30;99.90;;;;;;5016310;28;20035;-79
2022/08/24 03:49:50;;;;;;;2.38;0.85;;;13.40;99.90;;;;;;5033633;28;20029;-79
2022/08/24 03:52:18;;;;;;;4.93;0.80;;;13.30;99.90;;;;;;5033383;28;20026;-80
2022/08/24 03:54:45;;;;;;;1.15;0.77;;;13.30;99.90;;;;;;5033553;28;20037;-78
2022/08/24 03:57:13;;;;;;;3.42;0.60;;;13.40;99.90;;;;;;5033910;28;20107;-78
2022/08/24 03:59:41;;;;;;;1.77;0.70;;;13.40;99.90;;;;;;5031461;28;20493;-79
2022/08/24 04:02:09;;;;;;;1.42;0.60;;;13.40;99.90;;;;;;5033558;28;20524;-78
2022/08/24 04:04:36;;;;;;;1.13;0.60;;;13.40;99.90;;;;;;5033699;28;20017;-78
2022/08/24 04:07:04;;;;;;;1.25;0.65;;;13.40;99.90;;;;;;5033500;28;20025;-80
2022/08/24 04:09:31;;;;;;;1.92;0.73;;;13.40;99.90;;;;;;5033043;28;20025;-77
2022/08/24 04:11:59;;;;;;;1.20;0.50;;;13.40;99.90;;;;;;5030742;28;20052;-77
2022/08/24 04:14:30;;;;;;;2.42;0.60;;;13.40;99.90;;;;;;5032965;28;20018;-79
2022/08/24 04:16:57;;;;;;;1.23;0.50;;;13.40;99.90;;;;;;5033175;28;20112;-78
2022/08/24 04:19:25;;;;;;;0.90;0.65;;;13.40;99.90;;;;;;5032788;28;20028;-79
2022/08/24 04:21:57;;;;;;;2.17;0.73;;;13.50;99.90;;;;;;5033114;28;20020;-79
2022/08/24 04:24:25;;;;;;;2.35;0.88;;;13.50;99.90;;;;;;5031631;28;20101;-79
2022/08/24 04:26:53;;;;;;;1.95;0.55;;;13.50;99.90;;;;;;5033362;28;20024;-79
2022/08/24 04:29:21;;;;;;;1.35;0.70;;;13.50;99.90;;;;;;5030968;28;20064;-80
2022/08/24 04:31:48;;;;;;;3.22;0.40;;;13.40;99.90;;;;;;5033300;28;20021;-78
2022/08/24 04:34:17;;;;;;;1.38;0.40;;;13.40;99.90;;;;;;5015278;28;20125;-80
2022/08/24 04:36:45;;;;;;;0.93;0.60;;;13.50;99.90;;;;;;5032900;28;20017;-79
2022/08/24 04:39:13;;;;;;;0.47;0.30;;;13.50;99.90;;;;;;5033419;28;20021;-79
2022/08/24 04:41:41;;;;;;;2.28;0.55;;;13.50;99.90;;;;;;5028033;28;20149;-81
2022/08/24 04:44:08;;;;;;;1.20;0.30;;;13.60;99.90;;;;;;5032564;28;20493;-79
2022/08/24 04:46:36;;;;;;;2.25;0.50;;;13.50;99.90;;;;;;5014117;28;20029;-81
2022/08/24 04:49:04;;;;;;;1.17;0.70;;;13.50;99.90;;;;;;5032196;28;20021;-80
2022/08/24 04:51:31;;;;;;;0.73;0.50;;;13.60;99.90;;;;;;5032302;28;20367;-80
2022/08/24 04:53:59;;;;;;;1.23;0.47;;;13.60;99.90;;;;;;5032019;28;20047;-79
2022/08/24 04:56:26;;;;;;;0.70;0.35;;;13.70;99.90;;;;;;5030937;28;20103;-78
2022/08/24 04:58:55;;;;;;;1.60;0.55;;;13.70;99.90;;;;;;5032207;28;20025;-79
2022/08/24 05:01:25;;;;;;;0.70;0.45;;;13.80;99.70;;;;;;5032149;28;20040;-80
2022/08/24 05:03:55;;;;;;;0.98;0.40;;;13.80;99.90;;;;;;5032522;28;20025;-79
2022/08/24 05:06:25;;;;;;;0.88;0.40;;;13.80;99.90;;;;;;5014373;28;20022;-80
2022/08/24 05:08:53;;;;;;;1.10;0.60;;;13.70;99.90;;;;;;5032292;28;20531;-79
2022/08/24 05:11:22;;;;;;;1.23;0.73;;;13.70;99.90;;;;;;5032236;28;20029;-81
2022/08/24 05:13:52;;;;;;;2.53;0.73;;;13.70;99.90;;;;;;5032589;28;20051;-81
2022/08/24 05:16:20;;;;;;;0.65;0.38;;;13.70;99.90;;;;;;5032396;28;20068;-80
2022/08/24 05:18:48;;;;;;;2.92;0.45;;;13.60;99.90;;;;;;5031723;28;20051;-80
2022/08/24 05:21:19;;;;;;;1.13;0.45;;;13.60;99.90;;;;;;5032336;28;20441;-80
2022/08/24 05:23:46;;;;;;;1.50;0.50;;;13.50;99.90;;;;;;5029657;28;20080;-80
2022/08/24 05:26:18;;;;;;;0.52;0.40;;;13.50;99.90;;;;;;5032691;28;20021;-77
2022/08/24 05:28:46;;;;;;;0.50;0.30;;;13.50;99.60;;;;;;5030168;28;20029;-81
2022/08/24 05:31:26;;;;;;;2.15;0.63;;;13.60;98.20;;;;;;5032648;28;20064;-79
2022/08/24 05:33:54;;;;;;;0.95;0.52;;;13.60;99.00;;;;;;5030897;28;20075;-79
2022/08/24 05:36:34;;;;;;;0.52;0.40;;;13.60;99.50;;;;;;5032401;28;20021;-78
2022/08/24 05:39:04;;;;;;;2.30;0.60;;;13.60;98.30;;;;;;5032514;28;20021;-80
2022/08/24 05:41:31;;;;;;;0.50;0.30;;;13.60;98.10;;;;;;5032497;28;20025;-81
2022/08/24 05:43:58;;;;;;;1.17;0.60;;;13.60;99.20;;;;;;5032543;28;20398;-80
2022/08/24 05:46:26;;;;;;;1.95;0.32;;;13.60;99.90;;;;;;5030007;28;20018;-80
2022/08/24 05:48:53;;;;;;;0.77;0.50;;;13.60;99.40;;;;;;5035716;28;20108;-78
2022/08/24 05:51:21;;;;;;;0.20;0.20;;;13.60;98.60;;;;;;5036141;28;20524;-81
2022/08/24 05:53:49;;;;;;;0.57;0.38;;;13.60;99.90;;;;;;5036084;28;20057;-80
2022/08/24 05:56:17;;;;;;;0.65;0.40;;;13.50;99.10;;;;;;5036174;28;20112;-79
2022/08/24 05:58:46;;;;;;;0.45;0.40;;;13.50;97.40;;;;;;5033476;28;20108;-80
2022/08/24 06:01:21;;;;;;;0.90;0.50;;;13.50;97.10;;;;;;5035991;28;20022;-78
2022/08/24 06:03:50;;;;;;;1.00;0.50;;;13.50;96.70;;;;;;5033886;28;20076;-79
2022/08/24 06:06:19;;;;;;;0.47;0.30;;;13.50;97.20;;;;;;5035951;28;20071;-79
2022/08/24 06:08:48;;;;;;;0.88;0.40;;;13.50;98.40;;;;;;5033140;28;20026;-78
2022/08/24 06:11:31;;;;;;;1.10;0.65;;;13.40;98.50;;;;;;5035934;28;20167;-78
2022/08/24 06:14:05;;;;;;;0.93;0.45;;;13.40;99.10;;;;;;5034376;28;20383;-78
2022/08/24 06:16:35;;;;;;;0.50;0.40;;;13.40;97.40;;;;;;5034158;28;20017;-81
2022/08/24 06:19:03;;;;;;;1.52;0.52;;;13.40;97.60;;;;;;5035182;28;20025;-80
2022/08/24 06:21:31;;;;;;;0.93;0.65;;;13.30;97.40;;;;;;5035538;28;20044;-80
2022/08/24 06:23:59;;;;;;;2.47;0.50;;;13.30;98.00;;;;;;5034951;28;20022;-81
2022/08/24 06:29:13;;;;;;;0.65;0.55;;;13.20;98.90;;;;;;5030784;28;20024;-79
2022/08/24 06:31:43;;;;;;;0.77;0.50;;;13.10;98.50;;;;;;5035332;28;20017;-79
2022/08/24 06:34:12;;;;;;;0.60;0.50;;;13.10;99.50;;;;;;5034124;28;20497;-81
2022/08/24 06:36:39;;;;;;;0.90;0.70;;;13.10;99.90;;;;;;5034415;28;20474;-80
2022/08/24 06:39:08;;;;;;;1.50;0.57;;;13.00;99.50;;;;;;5032782;28;20017;-80
2022/08/24 06:41:36;;;;;;;0.38;0.38;;;13.00;98.50;;;;;;5034853;28;20059;-78
2022/08/24 06:44:04;;;;;;;3.03;0.47;;;13.00;99.10;;;;;;5034777;28;20017;-78
2022/08/24 06:46:32;;;;;;;0.57;0.40;;;13.00;99.90;;;;;;5035086;28;20378;-80
2022/08/24 06:48:59;;;;;;;0.55;0.40;;;12.90;99.30;;;;;;5034895;28;20041;-80
2022/08/24 06:51:27;;;;;;;1.58;0.60;;;12.90;98.40;;;;;;5034666;28;20371;-79
2022/08/24 06:53:57;;;;;;;0.60;0.40;;;12.90;98.90;;;;;;5034710;28;20036;-78
2022/08/24 06:56:24;;;;;;;1.23;0.50;;;12.90;97.90;;;;;;5034772;28;20021;-80
2022/08/24 06:58:52;;;;;;;2.10;0.90;;;12.80;98.70;;;;;;5034369;28;20021;-82
2022/08/24 07:01:22;;;;;;;2.42;1.02;;;12.80;99.60;;;;;;5034572;28;20446;-81
2022/08/24 07:03:50;;;;;;;3.83;1.00;;;12.80;99.90;;;;;;5032440;28;20052;-79
2022/08/24 07:06:17;;;;;;;3.80;0.98;;;12.80;99.90;;;;;;5034320;28;20433;-76
2022/08/24 07:08:45;;;;;;;3.42;0.98;;;12.80;99.90;;;;;;5033927;28;20027;-80
2022/08/24 07:11:14;;;;;;;3.40;1.20;;;12.70;99.90;;;;;;5033237;28;20502;-79
2022/08/24 07:13:41;;;;;;;3.25;1.13;;;12.60;99.90;;;;;;5032022;28;20036;-79
2022/08/24 07:16:09;;;;;;;6.30;1.90;;;12.60;99.90;;;;;;5034512;28;20025;-80
2022/08/24 07:18:37;;;;;;;6.28;1.98;;;12.60;99.90;;;;;;5033489;28;20045;-80
2022/08/24 07:21:05;;;;;;;5.70;2.15;;;12.50;99.90;;;;;;5032783;28;20021;-78
2022/08/24 07:23:33;;;;;;;3.58;1.98;;;12.40;99.90;;;;;;5033414;28;20059;-79
2022/08/24 07:26:09;;;;;;;6.43;1.70;;;12.30;99.90;;;;;;5033099;28;20025;-79
2022/08/24 07:28:38;;;;;;;2.88;1.20;;;12.20;99.90;;;;;;5032150;28;20478;-78
2022/08/24 07:31:08;;;;;;;7.90;1.52;;;12.10;99.90;;;;;;5030859;28;20502;-80
2022/08/24 07:33:36;;;;;;;6.72;1.40;;;12.10;99.90;;;;;;5032289;28;20033;-77
2022/08/24 07:36:03;;;;;;;4.55;1.17;;;12.00;99.90;;;;;;5032051;28;20024;-80
2022/08/24 07:38:31;;;;;;;9.48;1.55;;;12.00;99.90;;;;;;5033987;28;20021;-76
2022/08/24 07:41:01;;;;;;;2.75;1.15;;;11.90;99.90;;;;;;5034138;28;20015;-80
2022/08/24 07:43:29;;;;;;;3.25;1.10;;;11.90;99.90;;;;;;5032073;28;20078;-81
2022/08/24 07:45:56;;;;;;;3.70;1.52;;;11.80;99.90;;;;;;5033009;28;20022;-81
2022/08/24 07:48:24;;;;;;;2.35;1.20;;;11.80;99.90;;;;;;5032463;28;20080;-80
2022/08/24 07:50:52;;;;;;;2.75;1.15;;;11.70;99.90;;;;;;5032190;28;20074;-81
2022/08/24 07:53:19;;;;;;;3.83;1.40;;;11.60;99.90;;;;;;5037341;28;20036;-79
2022/08/24 07:55:55;;;;;;;4.90;1.67;;;11.50;99.90;;;;;;5030868;28;20022;-78
2022/08/24 07:58:23;;;;;;;1.67;0.95;;;11.40;99.90;;;;;;5014686;28;20025;-80
2022/08/24 08:00:51;;;;;;;1.73;1.20;;;11.30;99.90;;;;;;5033811;28;20068;-79
2022/08/24 08:03:18;;;;;;;2.40;1.08;;;11.20;99.90;;;;;;5030855;28;20041;-81
2022/08/24 08:05:48;;;;;;;2.17;1.65;;;11.20;99.90;;;;;;5029533;28;20036;-80
2022/08/24 08:08:15;;;;;;;2.78;1.70;;;11.10;99.90;;;;;;5032139;28;20203;-79
2022/08/24 08:10:42;;;;;;;2.70;1.27;;;11.00;99.90;;;;;;5030336;28;20022;-81
2022/08/24 08:13:10;;;;;;;3.67;1.83;;;11.00;99.90;;;;;;5030500;28;20390;-80
2022/08/24 08:15:38;;;;;;;5.75;1.42;;;10.90;99.90;;;;;;5030589;28;20493;-78
2022/08/24 08:18:05;;;;;;;4.20;1.70;;;10.80;99.90;;;;;;5046425;28;20013;-73
2022/08/24 08:20:33;;;;;;;7.25;1.55;;;10.80;99.90;;;;;;5047769;28;20017;-79
2022/08/24 08:25:53;;;;;;;3.87;1.20;;;10.70;99.90;;;;;;5050199;28;20040;-78
2022/08/24 08:28:21;;;;;;;5.88;1.00;;;10.70;99.90;;;;;;5049896;28;20269;-77
2022/08/24 08:30:48;;;;;;;5.60;1.92;;;10.60;99.90;;;;;;5051362;28;20025;-80
2022/08/24 08:33:16;;;;;;;3.00;1.25;;;10.60;99.90;;;;;;5036838;28;20073;-80
2022/08/24 08:35:43;;;;;;;4.43;1.45;;;10.60;99.90;;;;;;5034365;28;20010;-78
2022/08/24 08:38:11;;;;;;;3.17;1.38;;;10.50;99.90;;;;;;5032938;28;20478;-80
2022/08/24 08:40:44;;;;;;;6.50;1.40;;;10.50;99.90;;;;;;5015955;28;20029;-80
2022/08/24 08:43:36;;;;;;;6.70;1.00;;;10.40;99.90;;;;;;5014734;28;20160;-82
2022/08/24 08:46:24;;;;;;;3.10;1.58;;;10.40;99.90;;;;;;5031043;28;20021;-81
2022/08/24 08:49:11;;;;;;;4.90;2.38;;;10.30;99.90;;;;;;5032696;28;20076;-81
2022/08/24 08:52:13;;;;;;;5.53;2.30;;;10.30;99.90;;;;;;5033112;28;20028;-82
2022/08/24 08:55:07;;;;;;;7.63;3.13;;;10.30;99.90;;;;;;5031382;28;20030;-79
2022/08/24 08:57:43;;;;;;;6.38;3.72;;;10.20;99.90;;;;;;5033795;28;20013;-81
2022/08/24 09:00:21;;;;;;;;;;;10.20;99.90;;;;;;5013413;28;20047;-81
2022/08/24 09:03:06;;;;;;;3.85;2.42;;;10.20;99.90;;;;;;5032150;28;19917;-81
2022/08/24 09:05:56;;;;;;;9.68;3.40;;;10.20;99.90;;;;;;5032004;28;20378;-81
2022/08/24 09:08:53;;;;;;;8.75;2.75;;;10.20;99.90;;;;;;5032126;28;20462;-77
2022/08/24 09:11:44;;;;;;;11.75;3.78;;;10.20;99.90;;;;;;5036179;28;20543;-73
2022/08/24 09:14:29;;;;;;;6.32;3.33;;;10.20;99.90;;;;;;5031695;28;20128;-80
2022/08/24 09:17:08;;;;;;;5.95;3.15;;;10.20;99.90;;;;;;5038784;28;20051;-80
2022/08/24 09:19:56;;;;;;;10.02;2.70;;;10.10;99.90;;;;;;5018311;28;20029;-74
2022/08/24 09:22:23;;;;;;;4.38;2.50;;;10.10;99.90;;;;;;5031737;28;20033;-81
2022/08/24 09:25:00;;;;;;;6.13;2.40;;;10.00;99.90;;;;;;5033111;28;20041;-75
2022/08/24 09:27:42;;;;;;;7.10;3.10;;;10.00;99.90;;;;;;5017676;28;20079;-78
2022/08/24 09:30:23;;;;;;;5.05;2.40;;;10.00;99.90;;;;;;5036079;28;20030;-78
2022/08/24 09:33:21;;;;;;;5.50;2.50;;;10.00;99.90;;;;;;5046113;28;20457;-77
2022/08/24 09:36:09;;;;;;;4.93;2.30;;;9.90;99.90;;;;;;5047504;28;20029;-81
2022/08/24 09:38:42;;;;;;;8.90;2.50;;;9.90;99.90;;;;;;5034502;28;20144;-78
2022/08/24 09:41:16;;;;;;;6.35;1.67;;;9.80;99.90;;;;;;5036549;28;20037;-81
2022/08/24 09:44:13;;;;;;;4.72;1.80;;;9.80;99.90;;;;;;5042460;28;20092;-82
2022/08/24 09:46:40;;;;;;;5.20;1.90;;;9.80;99.90;;;;;;5041796;28;20016;-80
2022/08/24 09:49:28;;;;;;;4.20;2.00;;;9.80;99.90;;;;;;5030557;28;20022;-78
2022/08/24 09:52:17;;;;;;;4.05;2.10;;;9.70;99.90;;;;;;5034145;28;20036;-81
2022/08/24 09:55:08;;;;;;;8.50;2.30;;;9.70;99.90;;;;;;5037869;28;20051;-81
2022/08/24 09:58:12;;;;;;;6.50;3.80;;;9.70;99.90;;;;;;5013040;28;20027;-80
2022/08/24 10:00:45;;;;;;;8.52;4.55;;;9.60;99.90;;;;;;5035558;28;20024;-78
2022/08/24 10:03:15;;;;;;;9.85;4.88;;;9.60;99.90;;;;;;5038812;28;20029;-81
2022/08/24 10:06:15;;;;;;;7.60;2.80;;;9.50;99.90;;;;;;5034609;28;20099;-79
2022/08/24 10:09:19;;;;;;;4.65;2.08;;;9.50;99.90;;;;;;5021578;28;20037;-80
2022/08/24 10:12:04;;;;;;;6.68;2.10;;;9.50;99.90;;;;;;5035571;28;20051;-81
2022/08/24 10:14:48;;;;;;;4.32;1.63;;;9.60;99.90;;;;;;5038003;28;20040;-79
2022/08/24 10:17:21;;;;;;;4.45;1.80;;;9.70;99.90;;;;;;5037276;28;20034;-78
2022/08/24 10:20:19;;;;;;;4.70;1.63;;;9.80;99.90;;;;;;5036785;28;20026;-76
2022/08/24 10:22:52;;;;;;;2.38;1.55;;;9.80;99.90;;;;;;5037190;28;20108;-79
2022/08/24 10:25:37;;;;;;;4.93;1.60;;;9.90;99.90;;;;;;5037465;28;20061;-78
2022/08/24 10:28:32;;;;;;;1.67;1.00;;;9.90;99.90;;;;;;5024275;28;20382;-80
2022/08/24 10:31:24;;;;;;;1.67;1.00;;;9.90;99.90;;;;;;5038994;28;20016;-81
2022/08/24 10:33:54;;;;;;;2.78;1.23;;;9.90;99.90;;;;;;5035009;28;20113;-80
2022/08/24 10:36:46;;;;;;;5.38;1.48;;;9.80;99.90;;;;;;5037259;28;20045;-81
2022/08/24 10:45:38;;;;;;;1.85;0.70;;;9.70;99.90;;;;;;5035638;28;20033;-80
2022/08/24 10:48:37;;;;;;;2.65;1.23;;;9.60;99.90;;;;;;5035834;28;20471;-74
2022/08/24 10:51:13;;;;;;;3.60;1.13;;;9.50;99.90;;;;;;5035786;28;20029;-80
2022/08/24 10:53:46;;;;;;;0.93;0.77;;;9.50;99.90;;;;;;5017818;28;20033;-79
2022/08/24 10:56:18;;;;;;;1.40;0.82;;;9.50;99.90;;;;;;5037055;28;20041;-79
2022/08/24 10:59:17;;;;;;;3.53;0.90;;;9.50;99.90;;;;;;5017548;28;20437;-80
2022/08/24 11:02:09;;;;;;;5.32;0.90;;;9.50;99.90;;;;;;5031849;28;20491;-80
2022/08/24 11:04:38;;;;;;;4.72;1.50;;;9.50;99.90;;;;;;5033540;28;20529;-79
2022/08/24 11:07:18;;;;;;;3.72;0.90;;;9.40;99.90;;;;;;5032449;28;20533;-80
2022/08/24 11:09:55;;;;;;;1.45;0.65;;;9.40;99.90;;;;;;5033886;28;20187;-80
2022/08/24 11:12:30;;;;;;;3.47;1.10;;;9.30;99.90;;;;;;5033094;28;20025;-76
2022/08/24 11:15:03;;;;;;;2.45;0.95;;;9.30;99.90;;;;;;5030619;28;20048;-79
2022/08/24 11:17:33;;;;;;;1.85;0.77;;;9.30;99.90;;;;;;5036701;28;20378;-79
2022/08/24 11:20:01;;;;;;;9.38;1.60;;;9.30;99.90;;;;;;5034031;28;20425;-79
2022/08/24 11:22:30;;;;;;;3.03;0.68;;;9.30;99.90;;;;;;5036019;28;20021;-80
2022/08/24 11:25:03;;;;;;;1.25;0.80;;;9.20;99.90;;;;;;5036627;28;20022;-80
2022/08/24 11:27:47;;;;;;;2.03;0.90;;;9.10;99.90;;;;;;5033869;28;20091;-80
2022/08/24 11:30:20;;;;;;;2.75;0.90;;;9.10;99.90;;;;;;5014277;28;20403;-76
2022/08/24 11:32:55;;;;;;;1.80;0.90;;;9.10;99.90;;;;;;5032738;28;20471;-80
2022/08/24 11:35:38;;;;;;;1.00;0.90;;;9.00;99.90;;;;;;5033821;28;20026;-80
2022/08/24 11:38:19;;;;;;;2.22;0.82;;;9.00;99.90;;;;;;5033853;28;20518;-80
2022/08/24 11:41:03;;;;;;;1.50;0.55;;;9.00;99.90;;;;;;5033731;28;20040;-80
2022/08/24 11:43:34;;;;;;;1.90;1.08;;;9.00;99.90;;;;;;5035608;28;20336;-79
2022/08/24 11:46:23;;;;;;;1.42;0.50;;;8.90;99.90;;;;;;5035225;28;20025;-80
2022/08/24 11:49:11;;;;;;;2.38;0.80;;;8.90;99.90;;;;;;5034171;28;20087;-80
2022/08/24 11:52:02;;;;;;;1.20;0.60;;;8.80;99.90;;;;;;5036464;28;20063;-80
2022/08/24 11:54:35;;;;;;;1.83;0.60;;;8.80;99.90;;;;;;5032028;28;20038;-80
2022/08/24 11:57:15;;;;;;;4.35;0.82;;;8.80;99.90;;;;;;5031159;28;20057;-80
2022/08/24 11:59:50;;;;;;;0.93;0.70;;;8.70;99.90;;;;;;5033334;28;20017;-78
2022/08/24 12:02:34;;;;;;;0.90;0.68;;;8.70;99.90;;;;;;5032938;28;20092;-80
2022/08/24 12:05:32;;;;;;;2.05;0.90;;;8.70;99.90;;;;;;5036253;28;20071;-80
2022/08/24 12:08:22;;;;;;;2.47;1.00;;;8.60;99.90;;;;;;5007346;28;20415;-81
2022/08/24 12:11:34;;;;;;;2.85;1.20;;;8.60;99.90;;;;;;5034202;28;20480;-80
2022/08/24 12:14:31;;;;;;;2.90;0.98;;;8.60;99.90;;;;;;5032299;28;20030;-79
2022/08/24 12:17:15;;;;;;;3.22;1.13;;;8.60;99.90;;;;;;5007684;28;20026;-80
2022/08/24 12:19:49;;;;;;;4.45;1.50;;;8.50;99.90;;;;;;5035768;28;20104;-76
2022/08/24 12:22:20;;;;;;;2.75;1.35;;;8.50;99.90;;;;;;5037301;28;20094;-77
2022/08/24 12:24:54;;;;;;;2.05;1.20;;;8.50;99.90;;;;;;5036107;28;20017;-76
2022/08/24 12:27:27;;;;;;;3.23;1.60;;;8.40;99.90;;;;;;5035276;28;20020;-80
2022/08/24 12:29:54;;;;;;;6.28;3.55;;;8.30;99.90;;;;;;5032675;28;20271;-80
2022/08/24 12:32:27;;;;;;;7.05;3.97;;;8.30;99.90;;;;;;5032946;28;20017;-80
2022/08/24 12:35:22;;;;;;;5.97;3.22;;;8.30;99.90;;;;;;5033213;28;20018;-79
2022/08/24 12:38:11;;;;;;;2.35;1.50;;;8.20;99.90;;;;;;5032224;28;20097;-79
2022/08/24 12:40:44;;;;;;;3.20;1.50;;;8.20;99.90;;;;;;5033308;28;20041;-80
2022/08/24 12:43:30;;;;;;;3.17;1.70;;;8.20;99.90;;;;;;5033341;28;20017;-79
2022/08/24 12:46:01;;;;;;;3.85;1.35;;;8.20;99.90;;;;;;5033074;28;20100;-80
2022/08/24 12:48:43;;;;;;;2.53;1.42;;;8.10;99.90;;;;;;5033291;28;20071;-78
2022/08/24 12:51:20;;;;;;;2.80;1.08;;;8.10;99.90;;;;;;5032192;28;20029;-79
2022/08/24 12:54:00;;;;;;;4.05;1.50;;;8.10;99.90;;;;;;5031401;28;20030;-79
2022/08/24 12:56:48;;;;;;;5.53;1.20;;;8.00;99.90;;;;;;5031416;28;20013;-80
2022/08/24 12:59:23;;;;;;;2.25;0.85;;;8.00;99.90;;;;;;5032623;28;20022;-79
2022/08/24 13:02:04;;;;;;;2.58;0.90;;;7.90;99.90;;;;;;5015192;28;20496;-79
2022/08/24 13:04:51;;;;;;;4.68;1.00;;;7.80;99.90;;;;;;5032138;28;20371;-79
2022/08/24 13:07:21;;;;;;;1.50;0.88;;;7.80;99.90;;;;;;5033081;28;20020;-78
2022/08/24 13:10:08;;;;;;;4.13;1.65;;;7.80;99.90;;;;;;5032911;28;20501;-78
2022/08/24 13:15:27;;;;;;;5.68;1.35;;;7.70;99.90;;;;;;5032921;28;20090;-80
2022/08/24 13:18:06;;;;;;;4.22;1.83;;;7.70;99.90;;;;;;5032238;28;20036;-75
2022/08/24 13:20:36;;;;;;;4.32;1.73;;;7.70;99.90;;;;;;5032831;28;20049;-76
2022/08/24 13:23:18;;;;;;;4.60;1.60;;;7.70;99.90;;;;;;5029452;28;20478;-78
2022/08/24 13:25:54;;;;;;;2.00;1.08;;;7.70;99.90;;;;;;5032348;28;20022;-73
2022/08/24 13:28:24;;;;;;;5.60;1.27;;;7.70;99.90;;;;;;5034245;28;20029;-74
2022/08/24 13:31:18;;;;;;;8.18;1.65;;;7.70;99.90;;;;;;5033906;28;20033;-79
2022/08/24 13:33:51;;;;;;;1.42;1.08;;;7.70;99.90;;;;;;5034501;28;20029;-78
2022/08/24 13:36:43;;;;;;;5.93;1.20;;;7.60;99.90;;;;;;5034220;28;20104;-78
2022/08/24 13:39:11;;;;;;;2.20;1.00;;;7.60;99.90;;;;;;5034040;28;20097;-71
2022/08/24 13:42:02;;;;;;;2.22;0.98;;;7.60;99.90;;;;;;5033289;28;20018;-81